sensor_id;sensor_type;location;lat;lon;timestamp;pressure;altitude;pressure_sealevel;temperature;humidity
63285;BME280;49409;55.708;37.522;2023-01-29T00:00:03;99547.25;;;4.71;48.45
63285;BME280;49409;55.708;37.522;2023-01-29T00:02:34;99548.75;;;4.65;49.11
63285;BME280;49409;55.708;37.522;2023-01-29T00:04:59;99544.72;;;4.55;49.01
63285;BME280;49409;55.708;37.522;2023-01-29T00:07:24;99554.84;;;4.54;49.20
63285;BME280;49409;55.708;37.522;2023-01-29T00:09:50;99554.81;;;4.51;48.73
63285;BME280;49409;55.708;37.522;2023-01-29T00:12:15;99556.25;;;4.41;49.22
63285;BME280;49409;55.708;37.522;2023-01-29T00:14:40;99550.38;;;4.39;49.46
63285;BME280;49409;55.708;37.522;2023-01-29T00:17:06;99546.78;;;4.31;48.97
63285;BME280;49409;55.708;37.522;2023-01-29T00:19:31;99542.88;;;4.29;49.01
63285;BME280;49409;55.708;37.522;2023-01-29T00:21:56;99548.38;;;4.36;49.20
63285;BME280;49409;55.708;37.522;2023-01-29T00:24:22;99548.38;;;4.36;49.09
63285;BME280;49409;55.708;37.522;2023-01-29T00:26:47;99536.25;;;4.30;48.64
63285;BME280;49409;55.708;37.522;2023-01-29T00:29:14;99534.59;;;4.22;49.55
63285;BME280;49409;55.708;37.522;2023-01-29T00:31:39;99538.91;;;4.23;49.12
63285;BME280;49409;55.708;37.522;2023-01-29T00:34:07;99546.00;;;4.31;48.36
63285;BME280;49409;55.708;37.522;2023-01-29T00:36:33;99549.63;;;4.42;48.59
63285;BME280;49409;55.708;37.522;2023-01-29T00:38:58;99537.53;;;4.40;49.40
63285;BME280;49409;55.708;37.522;2023-01-29T00:41:27;99539.91;;;4.41;48.80
63285;BME280;49409;55.708;37.522;2023-01-29T00:44:11;99535.84;;;4.28;49.06
63285;BME280;49409;55.708;37.522;2023-01-29T00:46:55;99534.28;;;4.27;48.88
63285;BME280;49409;55.708;37.522;2023-01-29T00:49:21;99528.84;;;4.27;49.62
63285;BME280;49409;55.708;37.522;2023-01-29T00:51:46;99528.44;;;4.28;49.22
63285;BME280;49409;55.708;37.522;2023-01-29T00:54:31;99528.03;;;4.26;49.47
63285;BME280;49409;55.708;37.522;2023-01-29T00:56:57;99528.09;;;4.30;48.68
63285;BME280;49409;55.708;37.522;2023-01-29T00:59:22;99528.84;;;4.30;48.88
63285;BME280;49409;55.708;37.522;2023-01-29T01:01:47;99533.34;;;4.15;49.34
63285;BME280;49409;55.708;37.522;2023-01-29T01:04:31;99527.16;;;4.18;49.00
63285;BME280;49409;55.708;37.522;2023-01-29T01:06:56;99531.34;;;4.12;49.24
63285;BME280;49409;55.708;37.522;2023-01-29T01:09:22;99537.16;;;4.07;49.04
63285;BME280;49409;55.708;37.522;2023-01-29T01:12:05;99521.44;;;3.97;48.37
63285;BME280;49409;55.708;37.522;2023-01-29T01:14:32;99524.59;;;3.99;49.16
63285;BME280;49409;55.708;37.522;2023-01-29T01:17:00;99528.16;;;4.03;48.38
63285;BME280;49409;55.708;37.522;2023-01-29T01:19:25;99532.53;;;4.11;48.80
63285;BME280;49409;55.708;37.522;2023-01-29T01:21:51;99531.03;;;4.17;48.52
63285;BME280;49409;55.708;37.522;2023-01-29T01:24:16;99532.19;;;4.16;48.81
63285;BME280;49409;55.708;37.522;2023-01-29T01:26:41;99523.19;;;4.12;48.07
63285;BME280;49409;55.708;37.522;2023-01-29T01:29:07;99530.22;;;4.13;48.14
63285;BME280;49409;55.708;37.522;2023-01-29T01:31:33;99527.97;;;4.19;48.75
63285;BME280;49409;55.708;37.522;2023-01-29T01:33:58;99533.81;;;4.21;48.12
63285;BME280;49409;55.708;37.522;2023-01-29T01:36:23;99526.38;;;4.18;47.42
63285;BME280;49409;55.708;37.522;2023-01-29T01:38:49;99525.66;;;4.21;48.23
63285;BME280;49409;55.708;37.522;2023-01-29T01:41:16;99520.97;;;4.22;47.00
63285;BME280;49409;55.708;37.522;2023-01-29T01:43:48;99522.16;;;4.21;48.35
63285;BME280;49409;55.708;37.522;2023-01-29T01:46:14;99515.91;;;4.20;48.09
63285;BME280;49409;55.708;37.522;2023-01-29T01:48:40;99511.66;;;4.23;47.69
63285;BME280;49409;55.708;37.522;2023-01-29T01:51:05;99505.47;;;4.26;47.93
63285;BME280;49409;55.708;37.522;2023-01-29T01:56:03;99510.09;;;4.22;47.12
63285;BME280;49409;55.708;37.522;2023-01-29T01:58:32;99505.00;;;4.20;47.50
63285;BME280;49409;55.708;37.522;2023-01-29T02:00:58;99496.16;;;4.27;47.96
63285;BME280;49409;55.708;37.522;2023-01-29T02:03:24;99495.41;;;4.30;47.44
63285;BME280;49409;55.708;37.522;2023-01-29T02:06:10;99492.66;;;4.30;47.62
63285;BME280;49409;55.708;37.522;2023-01-29T02:08:57;99486.69;;;4.17;47.35
63285;BME280;49409;55.708;37.522;2023-01-29T02:11:44;99490.59;;;4.20;47.49
63285;BME280;49409;55.708;37.522;2023-01-29T02:14:10;99482.03;;;4.17;47.04
63285;BME280;49409;55.708;37.522;2023-01-29T02:16:36;99481.25;;;4.17;46.89
63285;BME280;49409;55.708;37.522;2023-01-29T02:19:02;99475.03;;;4.20;47.23
63285;BME280;49409;55.708;37.522;2023-01-29T02:21:41;99479.81;;;4.27;47.25
63285;BME280;49409;55.708;37.522;2023-01-29T02:27:02;99471.63;;;4.27;46.65
63285;BME280;49409;55.708;37.522;2023-01-29T02:37:38;99448.63;;;4.21;46.89
63285;BME280;49409;55.708;37.522;2023-01-29T02:42:51;99439.22;;;4.18;46.09
63285;BME280;49409;55.708;37.522;2023-01-29T02:48:01;99437.28;;;4.18;47.00
63285;BME280;49409;55.708;37.522;2023-01-29T02:50:36;99432.69;;;4.26;46.26
63285;BME280;49409;55.708;37.522;2023-01-29T02:53:19;99431.47;;;4.20;46.89
63285;BME280;49409;55.708;37.522;2023-01-29T02:55:50;99415.16;;;4.24;46.50
63285;BME280;49409;55.708;37.522;2023-01-29T03:00:43;99422.63;;;4.30;46.09
63285;BME280;49409;55.708;37.522;2023-01-29T03:03:16;99422.19;;;4.25;45.58
63285;BME280;49409;55.708;37.522;2023-01-29T03:06:04;99419.06;;;4.23;46.54
63285;BME280;49409;55.708;37.522;2023-01-29T03:08:31;99412.13;;;4.29;46.33
63285;BME280;49409;55.708;37.522;2023-01-29T03:11:07;99409.06;;;4.34;46.08
63285;BME280;49409;55.708;37.522;2023-01-29T03:13:44;99406.03;;;4.43;46.11
63285;BME280;49409;55.708;37.522;2023-01-29T03:16:23;99403.72;;;4.45;45.68
63285;BME280;49409;55.708;37.522;2023-01-29T03:18:54;99394.75;;;4.44;45.86
63285;BME280;49409;55.708;37.522;2023-01-29T03:21:26;99381.94;;;4.45;45.56
63285;BME280;49409;55.708;37.522;2023-01-29T03:24:12;99385.44;;;4.45;45.99
63285;BME280;49409;55.708;37.522;2023-01-29T03:26:58;99383.47;;;4.46;46.19
63285;BME280;49409;55.708;37.522;2023-01-29T03:29:44;99380.38;;;4.47;46.31
63285;BME280;49409;55.708;37.522;2023-01-29T03:32:30;99371.88;;;4.52;46.74
63285;BME280;49409;55.708;37.522;2023-01-29T03:34:57;99365.25;;;4.53;45.87
63285;BME280;49409;55.708;37.522;2023-01-29T03:37:36;99356.28;;;4.49;45.31
63285;BME280;49409;55.708;37.522;2023-01-29T03:40:04;99357.84;;;4.50;45.55
63285;BME280;49409;55.708;37.522;2023-01-29T03:45:31;99355.53;;;4.52;45.76
63285;BME280;49409;55.708;37.522;2023-01-29T03:50:36;99337.59;;;4.51;45.82
63285;BME280;49409;55.708;37.522;2023-01-29T04:00:35;99331.38;;;4.51;45.88
63285;BME280;49409;55.708;37.522;2023-01-29T04:05:30;99321.94;;;4.41;46.12
63285;BME280;49409;55.708;37.522;2023-01-29T04:08:07;99321.94;;;4.41;46.06
63285;BME280;49409;55.708;37.522;2023-01-29T04:10:34;99319.22;;;4.41;45.36
63285;BME280;49409;55.708;37.522;2023-01-29T04:13:03;99317.31;;;4.45;45.79
63285;BME280;49409;55.708;37.522;2023-01-29T04:15:30;99309.59;;;4.51;46.00
63285;BME280;49409;55.708;37.522;2023-01-29T04:17:57;99311.16;;;4.55;45.65
63285;BME280;49409;55.708;37.522;2023-01-29T04:20:23;99307.28;;;4.56;45.86
63285;BME280;49409;55.708;37.522;2023-01-29T04:22:49;99310.78;;;4.57;45.30
63285;BME280;49409;55.708;37.522;2023-01-29T04:25:26;99315.88;;;4.59;45.56
63285;BME280;49409;55.708;37.522;2023-01-29T04:30:34;99310.00;;;4.56;46.32
63285;BME280;49409;55.708;37.522;2023-01-29T04:33:10;99307.28;;;4.56;45.88
63285;BME280;49409;55.708;37.522;2023-01-29T04:35:50;99303.00;;;4.55;46.13
63285;BME280;49409;55.708;37.522;2023-01-29T04:38:31;99308.06;;;4.57;45.52
63285;BME280;49409;55.708;37.522;2023-01-29T04:48:59;99300.22;;;4.52;45.97
63285;BME280;49409;55.708;37.522;2023-01-29T04:56:27;99297.94;;;4.57;45.54
63285;BME280;49409;55.708;37.522;2023-01-29T04:59:00;99291.75;;;4.61;45.30
63285;BME280;49409;55.708;37.522;2023-01-29T05:01:29;99285.13;;;4.62;45.69
63285;BME280;49409;55.708;37.522;2023-01-29T05:03:57;99290.97;;;4.60;44.96
63285;BME280;49409;55.708;37.522;2023-01-29T05:06:24;99280.06;;;4.60;45.05
63285;BME280;49409;55.708;37.522;2023-01-29T05:08:50;99271.06;;;4.52;45.64
63285;BME280;49409;55.708;37.522;2023-01-29T05:11:16;99273.72;;;4.45;45.25
63285;BME280;49409;55.708;37.522;2023-01-29T05:13:42;99281.53;;;4.47;45.72
63285;BME280;49409;55.708;37.522;2023-01-29T05:16:26;99285.44;;;4.49;45.62
63285;BME280;49409;55.708;37.522;2023-01-29T05:18:53;99281.56;;;4.50;45.09
63285;BME280;49409;55.708;37.522;2023-01-29T05:21:19;99286.97;;;4.47;45.30
63285;BME280;49409;55.708;37.522;2023-01-29T05:24:04;99288.16;;;4.49;45.82
63285;BME280;49409;55.708;37.522;2023-01-29T05:26:29;99290.13;;;4.52;45.05
63285;BME280;49409;55.708;37.522;2023-01-29T05:29:13;99279.25;;;4.52;46.22
63285;BME280;49409;55.708;37.522;2023-01-29T05:31:39;99288.97;;;4.53;45.91
63285;BME280;49409;55.708;37.522;2023-01-29T05:34:04;99296.00;;;4.54;45.00
63285;BME280;49409;55.708;37.522;2023-01-29T05:36:29;99287.81;;;4.54;46.00
63285;BME280;49409;55.708;37.522;2023-01-29T05:38:55;99287.81;;;4.54;45.55
63285;BME280;49409;55.708;37.522;2023-01-29T05:41:20;99292.84;;;4.52;45.78
63285;BME280;49409;55.708;37.522;2023-01-29T05:43:45;99286.22;;;4.53;45.45
63285;BME280;49409;55.708;37.522;2023-01-29T05:46:11;99283.16;;;4.59;45.59
63285;BME280;49409;55.708;37.522;2023-01-29T05:48:36;99288.63;;;4.59;45.14
63285;BME280;49409;55.708;37.522;2023-01-29T05:51:02;99292.09;;;4.55;45.37
63285;BME280;49409;55.708;37.522;2023-01-29T05:53:28;99282.38;;;4.54;45.44
63285;BME280;49409;55.708;37.522;2023-01-29T05:55:53;99293.25;;;4.54;45.78
63285;BME280;49409;55.708;37.522;2023-01-29T05:58:21;99281.19;;;4.55;45.31
63285;BME280;49409;55.708;37.522;2023-01-29T06:00:46;99290.53;;;4.58;45.86
63285;BME280;49409;55.708;37.522;2023-01-29T06:03:12;99286.25;;;4.57;45.65
63285;BME280;49409;55.708;37.522;2023-01-29T06:05:37;99291.75;;;4.61;45.98
63285;BME280;49409;55.708;37.522;2023-01-29T06:08:03;99302.13;;;4.44;45.14
63285;BME280;49409;55.708;37.522;2023-01-29T06:10:29;99293.91;;;4.37;46.47
63285;BME280;49409;55.708;37.522;2023-01-29T06:12:54;99294.63;;;4.34;46.18
63285;BME280;49409;55.708;37.522;2023-01-29T06:15:21;99296.22;;;4.35;45.73
63285;BME280;49409;55.708;37.522;2023-01-29T06:17:46;99296.22;;;4.35;46.12
63285;BME280;49409;55.708;37.522;2023-01-29T06:20:12;99283.00;;;4.37;45.82
63285;BME280;49409;55.708;37.522;2023-01-29T06:22:37;99278.38;;;4.41;45.14
63285;BME280;49409;55.708;37.522;2023-01-29T06:25:03;99269.81;;;4.43;45.61
63285;BME280;49409;55.708;37.522;2023-01-29T06:27:28;99267.47;;;4.41;45.20
63285;BME280;49409;55.708;37.522;2023-01-29T06:29:53;99271.38;;;4.44;45.53
63285;BME280;49409;55.708;37.522;2023-01-29T06:32:19;99272.97;;;4.48;46.07
63285;BME280;49409;55.708;37.522;2023-01-29T06:34:44;99272.22;;;4.51;45.24
63285;BME280;49409;55.708;37.522;2023-01-29T06:37:09;99264.47;;;4.57;46.00
63285;BME280;49409;55.708;37.522;2023-01-29T06:39:35;99258.28;;;4.60;45.77
63285;BME280;49409;55.708;37.522;2023-01-29T06:42:00;99271.91;;;4.60;44.97
63285;BME280;49409;55.708;37.522;2023-01-29T06:44:25;99279.25;;;4.52;45.61
63285;BME280;49409;55.708;37.522;2023-01-29T06:46:51;99268.28;;;4.45;45.73
63285;BME280;49409;55.708;37.522;2023-01-29T06:49:16;99276.00;;;4.40;45.91
63285;BME280;49409;55.708;37.522;2023-01-29T06:54:57;99263.94;;;4.37;45.34
63285;BME280;49409;55.708;37.522;2023-01-29T06:57:22;99255.41;;;4.42;45.52
63285;BME280;49409;55.708;37.522;2023-01-29T06:59:47;99244.19;;;4.51;46.08
63285;BME280;49409;55.708;37.522;2023-01-29T07:02:13;99246.94;;;4.54;45.27
63285;BME280;49409;55.708;37.522;2023-01-29T07:04:38;99245.75;;;4.52;44.84
63285;BME280;49409;55.708;37.522;2023-01-29T07:07:05;99233.69;;;4.53;45.48
63285;BME280;49409;55.708;37.522;2023-01-29T07:09:36;99227.88;;;4.54;45.26
63285;BME280;49409;55.708;37.522;2023-01-29T07:12:02;99226.34;;;4.61;45.09
63285;BME280;49409;55.708;37.522;2023-01-29T07:14:27;99232.19;;;4.63;44.98
63285;BME280;49409;55.708;37.522;2023-01-29T07:16:53;99238.44;;;4.67;45.28
63285;BME280;49409;55.708;37.522;2023-01-29T07:19:18;99230.31;;;4.74;45.43
63285;BME280;49409;55.708;37.522;2023-01-29T07:21:43;99237.31;;;4.75;45.44
63285;BME280;49409;55.708;37.522;2023-01-29T07:24:09;99235.00;;;4.77;44.93
63285;BME280;49409;55.708;37.522;2023-01-29T07:26:34;99234.63;;;4.79;45.43
63285;BME280;49409;55.708;37.522;2023-01-29T07:28:59;99229.53;;;4.77;45.40
63285;BME280;49409;55.708;37.522;2023-01-29T07:31:24;99223.31;;;4.76;44.95
63285;BME280;49409;55.708;37.522;2023-01-29T07:33:50;99220.97;;;4.75;44.68
63285;BME280;49409;55.708;37.522;2023-01-29T07:36:15;99215.91;;;4.73;44.84
63285;BME280;49409;55.708;37.522;2023-01-29T07:38:40;99224.03;;;4.70;44.74
63285;BME280;49409;55.708;37.522;2023-01-29T07:41:06;99225.59;;;4.67;45.33
63285;BME280;49409;55.708;37.522;2023-01-29T07:43:31;99216.25;;;4.65;45.35
63285;BME280;49409;55.708;37.522;2023-01-29T07:46:00;99209.22;;;4.64;45.30
63285;BME280;49409;55.708;37.522;2023-01-29T07:48:25;99210.78;;;4.65;45.31
63285;BME280;49409;55.708;37.522;2023-01-29T07:50:54;99205.34;;;4.65;45.00
63285;BME280;49409;55.708;37.522;2023-01-29T07:53:20;99199.91;;;4.72;45.37
63285;BME280;49409;55.708;37.522;2023-01-29T07:55:45;99193.75;;;4.79;44.91
63285;BME280;49409;55.708;37.522;2023-01-29T07:58:11;99189.84;;;4.83;44.96
63285;BME280;49409;55.708;37.522;2023-01-29T08:00:49;99201.56;;;4.87;44.84
63285;BME280;49409;55.708;37.522;2023-01-29T08:03:15;99199.28;;;4.96;44.26
63285;BME280;49409;55.708;37.522;2023-01-29T08:05:42;99195.78;;;5.00;44.76
63285;BME280;49409;55.708;37.522;2023-01-29T08:08:07;99197.72;;;4.99;44.23
63285;BME280;49409;55.708;37.522;2023-01-29T08:10:33;99195.38;;;5.01;44.42
63285;BME280;49409;55.708;37.522;2023-01-29T08:12:59;99196.97;;;5.06;44.31
63285;BME280;49409;55.708;37.522;2023-01-29T08:15:25;99179.03;;;5.05;44.71
63285;BME280;49409;55.708;37.522;2023-01-29T08:17:51;99189.91;;;4.97;43.79
63285;BME280;49409;55.708;37.522;2023-01-29T08:20:17;99173.56;;;5.01;44.67
63285;BME280;49409;55.708;37.522;2023-01-29T08:22:42;99176.72;;;5.07;44.13
63285;BME280;49409;55.708;37.522;2023-01-29T08:25:08;99175.56;;;5.08;44.11
63285;BME280;49409;55.708;37.522;2023-01-29T08:27:33;99176.38;;;5.15;44.03
63285;BME280;49409;55.708;37.522;2023-01-29T08:29:58;99169.34;;;5.18;43.81
63285;BME280;49409;55.708;37.522;2023-01-29T08:32:24;99169.72;;;5.16;44.27
63285;BME280;49409;55.708;37.522;2023-01-29T08:34:49;99168.97;;;5.20;43.86
63285;BME280;49409;55.708;37.522;2023-01-29T08:37:14;99168.97;;;5.20;43.62
63285;BME280;49409;55.708;37.522;2023-01-29T08:39:40;99167.41;;;5.22;43.82
63285;BME280;49409;55.708;37.522;2023-01-29T08:42:05;99179.13;;;5.26;43.76
63285;BME280;49409;55.708;37.522;2023-01-29T08:44:30;99177.56;;;5.32;43.63
63285;BME280;49409;55.708;37.522;2023-01-29T08:46:56;99168.22;;;5.30;43.94
63285;BME280;49409;55.708;37.522;2023-01-29T08:49:21;99166.63;;;5.29;43.52
63285;BME280;49409;55.708;37.522;2023-01-29T08:51:46;99167.41;;;5.22;43.54
63285;BME280;49409;55.708;37.522;2023-01-29T08:54:12;99168.97;;;5.20;44.13
63285;BME280;49409;55.708;37.522;2023-01-29T08:56:37;99171.28;;;5.21;43.92
63285;BME280;49409;55.708;37.522;2023-01-29T08:59:02;99169.38;;;5.25;43.96
63285;BME280;49409;55.708;37.522;2023-01-29T09:01:28;99158.06;;;5.27;43.44
63285;BME280;49409;55.708;37.522;2023-01-29T09:03:54;99156.13;;;5.31;43.64
63285;BME280;49409;55.708;37.522;2023-01-29T09:06:19;99156.91;;;5.35;44.06
63285;BME280;49409;55.708;37.522;2023-01-29T09:08:45;99154.19;;;5.39;43.37
63285;BME280;49409;55.708;37.522;2023-01-29T09:11:10;99131.59;;;5.27;43.92
63285;BME280;49409;55.708;37.522;2023-01-29T09:13:35;99153.44;;;5.45;43.81
63285;BME280;49409;55.708;37.522;2023-01-29T09:16:01;99157.34;;;5.48;43.46
63285;BME280;49409;55.708;37.522;2023-01-29T09:18:27;99159.28;;;5.44;43.48
63285;BME280;49409;55.708;37.522;2023-01-29T09:20:53;99161.63;;;5.45;43.87
63285;BME280;49409;55.708;37.522;2023-01-29T09:23:18;99160.47;;;5.50;43.37
63285;BME280;49409;55.708;37.522;2023-01-29T09:25:43;99152.25;;;5.46;43.39
63285;BME280;49409;55.708;37.522;2023-01-29T09:28:09;99151.84;;;5.41;43.39
63285;BME280;49409;55.708;37.522;2023-01-29T09:30:34;99151.84;;;5.41;43.27
63285;BME280;49409;55.708;37.522;2023-01-29T09:33:02;99151.06;;;5.36;43.42
63285;BME280;49409;55.708;37.522;2023-01-29T09:35:27;99140.94;;;5.37;43.11
63285;BME280;49409;55.708;37.522;2023-01-29T09:37:52;99135.09;;;5.42;43.87
63285;BME280;49409;55.708;37.522;2023-01-29T09:45:35;99130.44;;;5.35;43.71
63285;BME280;49409;55.708;37.522;2023-01-29T09:48:02;99128.09;;;5.34;43.03
63285;BME280;49409;55.708;37.522;2023-01-29T09:50:46;99121.47;;;5.31;43.81
63285;BME280;49409;55.708;37.522;2023-01-29T09:53:35;99121.06;;;5.29;42.96
63285;BME280;49409;55.708;37.522;2023-01-29T09:55:59;99115.19;;;5.31;43.42
63285;BME280;49409;55.708;37.522;2023-01-29T09:58:28;99101.97;;;5.36;43.53
63285;BME280;49409;55.708;37.522;2023-01-29T10:06:55;99087.56;;;5.57;43.27
63285;BME280;49409;55.708;37.522;2023-01-29T10:19:43;99080.16;;;5.69;42.73
63285;BME280;49409;55.708;37.522;2023-01-29T10:27:13;99051.31;;;5.57;42.97
63285;BME280;49409;55.708;37.522;2023-01-29T10:29:40;99043.50;;;5.59;42.69
63285;BME280;49409;55.708;37.522;2023-01-29T10:32:07;99034.13;;;5.67;43.27
63285;BME280;49409;55.708;37.522;2023-01-29T10:34:38;99029.44;;;5.64;42.67
63285;BME280;49409;55.708;37.522;2023-01-29T10:37:15;99031.78;;;5.66;42.93
63285;BME280;49409;55.708;37.522;2023-01-29T10:39:42;99019.34;;;5.57;41.71
63285;BME280;49409;55.708;37.522;2023-01-29T10:50:48;99009.97;;;5.73;42.94
63285;BME280;49409;55.708;37.522;2023-01-29T10:58:16;99000.59;;;5.70;42.83
63285;BME280;49409;55.708;37.522;2023-01-29T11:00:44;98997.84;;;5.78;43.13
63285;BME280;49409;55.708;37.522;2023-01-29T11:03:17;98999.44;;;5.71;42.53
63285;BME280;49409;55.708;37.522;2023-01-29T11:11:21;98984.19;;;5.78;42.64
63285;BME280;49409;55.708;37.522;2023-01-29T11:13:56;98981.47;;;5.78;43.33
63285;BME280;49409;55.708;37.522;2023-01-29T11:16:22;98981.09;;;5.83;42.97
63285;BME280;49409;55.708;37.522;2023-01-29T11:18:51;98980.28;;;5.82;42.84
63285;BME280;49409;55.708;37.522;2023-01-29T11:21:16;98974.84;;;5.71;42.73
63285;BME280;49409;55.708;37.522;2023-01-29T11:23:42;98975.66;;;5.61;42.81
63285;BME280;49409;55.708;37.522;2023-01-29T11:26:08;98977.59;;;5.64;43.44
63285;BME280;49409;55.708;37.522;2023-01-29T11:28:42;98977.97;;;5.73;43.18
63285;BME280;49409;55.708;37.522;2023-01-29T11:31:15;98970.94;;;5.83;43.25
63285;BME280;49409;55.708;37.522;2023-01-29T11:33:41;98975.19;;;5.84;43.14
63285;BME280;49409;55.708;37.522;2023-01-29T11:36:19;98973.63;;;5.90;43.17
63285;BME280;49409;55.708;37.522;2023-01-29T11:38:45;98969.34;;;5.93;43.00
63285;BME280;49409;55.708;37.522;2023-01-29T11:41:14;98965.47;;;5.87;42.79
63285;BME280;49409;55.708;37.522;2023-01-29T11:43:46;98967.00;;;5.88;43.19
63285;BME280;49409;55.708;37.522;2023-01-29T11:46:12;98954.91;;;5.96;43.02
63285;BME280;49409;55.708;37.522;2023-01-29T11:48:43;98956.09;;;5.95;42.57
63285;BME280;49409;55.708;37.522;2023-01-29T11:51:09;98958.41;;;5.93;42.87
63285;BME280;49409;55.708;37.522;2023-01-29T11:53:37;98949.84;;;5.94;43.14
63285;BME280;49409;55.708;37.522;2023-01-29T11:56:05;98958.41;;;6.00;43.14
63285;BME280;49409;55.708;37.522;2023-01-29T11:58:37;98949.03;;;5.94;42.79
63285;BME280;49409;55.708;37.522;2023-01-29T12:01:06;98948.66;;;5.92;43.25
63285;BME280;49409;55.708;37.522;2023-01-29T12:03:33;98944.38;;;5.91;43.11
63285;BME280;49409;55.708;37.522;2023-01-29T12:06:04;98938.91;;;5.91;43.32
63285;BME280;49409;55.708;37.522;2023-01-29T12:08:34;98946.72;;;5.96;43.24
63285;BME280;49409;55.708;37.522;2023-01-29T12:13:34;98941.25;;;5.92;43.26
63285;BME280;49409;55.708;37.522;2023-01-29T12:16:43;98940.47;;;5.99;43.25
63285;BME280;49409;55.708;37.522;2023-01-29T12:18:54;98935.38;;;6.05;42.70
63285;BME280;49409;55.708;37.522;2023-01-29T12:29:30;98938.13;;;5.90;43.61
63285;BME280;49409;55.708;37.522;2023-01-29T12:37:18;98945.22;;;5.77;43.31
63285;BME280;49409;55.708;37.522;2023-01-29T12:39:45;98943.69;;;5.65;43.65
63285;BME280;49409;55.708;37.522;2023-01-29T12:42:21;98939.75;;;5.66;43.35
63285;BME280;49409;55.708;37.522;2023-01-29T12:50:04;98935.88;;;5.60;43.67
63285;BME280;49409;55.708;37.522;2023-01-29T12:52:47;98940.56;;;5.56;43.42
63285;BME280;49409;55.708;37.522;2023-01-29T13:00:08;98942.53;;;5.52;43.61
63285;BME280;49409;55.708;37.522;2023-01-29T13:02:44;98936.31;;;5.51;43.52
63285;BME280;49409;55.708;37.522;2023-01-29T13:07:38;98939.03;;;5.44;43.32
63285;BME280;49409;55.708;37.522;2023-01-29T13:10:09;98936.72;;;5.35;43.91
63285;BME280;49409;55.708;37.522;2023-01-29T13:12:38;98931.66;;;5.38;44.09
63285;BME280;49409;55.708;37.522;2023-01-29T13:17:35;98921.94;;;5.26;43.61
63285;BME280;49409;55.708;37.522;2023-01-29T13:20:09;98921.16;;;5.14;44.45
63285;BME280;49409;55.708;37.522;2023-01-29T13:22:37;98912.97;;;5.22;43.94
63285;BME280;49409;55.708;37.522;2023-01-29T13:25:04;98919.59;;;5.17;43.66
63285;BME280;49409;55.708;37.522;2023-01-29T13:27:31;98918.03;;;5.16;44.60
63285;BME280;49409;55.708;37.522;2023-01-29T13:29:57;98911.41;;;5.21;44.19
63285;BME280;49409;55.708;37.522;2023-01-29T13:32:24;98920.78;;;5.20;44.48
63285;BME280;49409;55.708;37.522;2023-01-29T13:34:51;98918.03;;;5.20;44.08
63285;BME280;49409;55.708;37.522;2023-01-29T13:37:22;98915.69;;;5.18;44.21
63285;BME280;49409;55.708;37.522;2023-01-29T13:39:52;98920.34;;;5.21;44.47
63285;BME280;49409;55.708;37.522;2023-01-29T13:42:19;98913.34;;;5.20;44.29
63285;BME280;49409;55.708;37.522;2023-01-29T13:44:48;98914.91;;;5.21;44.47
63285;BME280;49409;55.708;37.522;2023-01-29T13:47:27;98907.53;;;5.22;44.49
63285;BME280;49409;55.708;37.522;2023-01-29T13:49:58;98903.22;;;5.17;44.55
63285;BME280;49409;55.708;37.522;2023-01-29T13:52:34;98902.84;;;5.15;44.25
63285;BME280;49409;55.708;37.522;2023-01-29T13:55:03;98898.56;;;5.14;44.32
63285;BME280;49409;55.708;37.522;2023-01-29T14:00:53;98908.66;;;5.17;44.40
63285;BME280;49409;55.708;37.522;2023-01-29T14:11:26;98891.94;;;5.19;44.04
63285;BME280;49409;55.708;37.522;2023-01-29T14:13:44;98882.16;;;5.21;44.49
63285;BME280;49409;55.708;37.522;2023-01-29T14:23:44;98879.06;;;5.19;44.57
63285;BME280;49409;55.708;37.522;2023-01-29T14:26:18;98873.59;;;5.19;44.32
63285;BME280;49409;55.708;37.522;2023-01-29T14:28:45;98877.91;;;5.20;44.79
63285;BME280;49409;55.708;37.522;2023-01-29T14:31:26;98875.94;;;5.17;44.62
63285;BME280;49409;55.708;37.522;2023-01-29T14:33:52;98872.06;;;5.22;44.47
63285;BME280;49409;55.708;37.522;2023-01-29T14:36:17;98875.19;;;5.16;44.31
63285;BME280;49409;55.708;37.522;2023-01-29T14:38:46;98875.56;;;5.19;44.28
63285;BME280;49409;55.708;37.522;2023-01-29T14:41:25;98878.28;;;5.22;44.60
63285;BME280;49409;55.708;37.522;2023-01-29T14:49:02;98881.78;;;5.19;44.11
63285;BME280;49409;55.708;37.522;2023-01-29T14:51:31;98865.81;;;5.21;45.30
63285;BME280;49409;55.708;37.522;2023-01-29T14:54:13;98872.84;;;5.19;44.83
63285;BME280;49409;55.708;37.522;2023-01-29T14:56:42;98875.19;;;5.20;44.52
63285;BME280;49409;55.708;37.522;2023-01-29T14:59:15;98874.38;;;5.23;45.10
63285;BME280;49409;55.708;37.522;2023-01-29T15:01:46;98863.06;;;5.28;44.93
63285;BME280;49409;55.708;37.522;2023-01-29T15:04:13;98872.41;;;5.31;44.78
63285;BME280;49409;55.708;37.522;2023-01-29T15:06:47;98862.25;;;5.35;44.70
63285;BME280;49409;55.708;37.522;2023-01-29T15:12:06;98865.03;;;5.31;45.09
63285;BME280;49409;55.708;37.522;2023-01-29T15:14:35;98868.91;;;5.30;44.81
63285;BME280;49409;55.708;37.522;2023-01-29T15:19:34;98861.16;;;5.22;45.40
63285;BME280;49409;55.708;37.522;2023-01-29T15:24:34;98865.03;;;5.21;45.63
63285;BME280;49409;55.708;37.522;2023-01-29T15:27:00;98862.69;;;5.23;44.89
63285;BME280;49409;55.708;37.522;2023-01-29T15:29:26;98865.03;;;5.24;45.08
63285;BME280;49409;55.708;37.522;2023-01-29T15:31:52;98861.91;;;5.22;45.20
63285;BME280;49409;55.708;37.522;2023-01-29T15:34:18;98867.38;;;5.22;44.90
63285;BME280;49409;55.708;37.522;2023-01-29T15:36:43;98869.34;;;5.18;45.14
63285;BME280;49409;55.708;37.522;2023-01-29T15:41:35;98872.88;;;5.08;45.59
63285;BME280;49409;55.708;37.522;2023-01-29T15:44:01;98870.91;;;5.01;46.09
63285;BME280;49409;55.708;37.522;2023-01-29T15:46:33;98866.59;;;5.07;45.46
63285;BME280;49409;55.708;37.522;2023-01-29T15:49:00;98865.06;;;5.06;45.39
63285;BME280;49409;55.708;37.522;2023-01-29T15:51:29;98869.72;;;5.09;45.65
63285;BME280;49409;55.708;37.522;2023-01-29T15:53:58;98865.84;;;5.07;45.43